createdAt,value
2023-05-05T00:02:22.713Z,18.43
2023-05-05T00:05:25.487Z,18.36
2023-05-05T00:08:28.593Z,18.28
2023-05-05T00:11:30.997Z,18.25
2023-05-05T00:14:33.355Z,18.31
2023-05-05T00:17:35.778Z,18.42
2023-05-05T00:20:38.321Z,18.18
2023-05-05T00:23:40.819Z,18.27
2023-05-05T00:26:43.237Z,18.29
2023-05-05T00:29:45.974Z,18.48
2023-05-05T00:32:49.385Z,18.37
2023-05-05T00:35:51.819Z,18.26
2023-05-05T00:38:54.249Z,18.17
2023-05-05T00:41:56.691Z,18.22
2023-05-05T00:44:59.310Z,18.31
2023-05-05T00:48:01.874Z,18.20
2023-05-05T00:51:08.861Z,18.19
2023-05-05T00:54:11.467Z,18.20
2023-05-05T00:57:13.832Z,18.17
2023-05-05T01:00:16.948Z,18.36
2023-05-05T01:03:19.412Z,18.08
2023-05-05T01:06:22.349Z,18.33
2023-05-05T01:09:43.429Z,18.07
2023-05-05T01:12:59.399Z,18.25
2023-05-05T01:16:05.099Z,18.22
2023-05-05T01:19:16.648Z,18.27
2023-05-05T01:22:20.671Z,18.21
2023-05-05T01:25:50.846Z,18.25
2023-05-05T01:29:07.718Z,17.95
2023-05-05T01:32:12.016Z,17.95
2023-05-05T01:35:19.283Z,18.04
2023-05-05T01:38:24.907Z,17.90
2023-05-05T01:41:32.549Z,17.98
2023-05-05T01:44:36.955Z,17.84
2023-05-05T01:47:40.468Z,17.94
2023-05-05T01:50:43.957Z,17.93
2023-05-05T01:53:47.365Z,17.78
2023-05-05T01:56:50.704Z,17.89
2023-05-05T01:59:53.347Z,17.74
2023-05-05T02:02:59.974Z,17.99
2023-05-05T02:06:02.944Z,17.88
2023-05-05T02:09:05.713Z,17.99
2023-05-05T02:12:08.604Z,17.79
2023-05-05T02:15:12.186Z,17.74
2023-05-05T02:18:14.969Z,17.78
2023-05-05T02:21:21.034Z,17.74
2023-05-05T02:24:24.400Z,17.85
2023-05-05T02:27:27.116Z,17.78
2023-05-05T02:30:33.642Z,17.79
2023-05-05T02:33:38.136Z,17.82
2023-05-05T02:36:42.503Z,17.76
2023-05-05T02:39:58.839Z,17.76
2023-05-05T02:43:06.000Z,17.96
2023-05-05T02:46:09.445Z,17.94
2023-05-05T02:49:15.254Z,17.79
2023-05-05T02:52:18.355Z,17.76
2023-05-05T02:55:21.377Z,17.58
2023-05-05T02:58:31.148Z,17.90
2023-05-05T03:01:47.456Z,17.89
2023-05-05T03:04:58.321Z,17.90
2023-05-05T03:08:06.006Z,17.68
2023-05-05T03:11:16.787Z,17.62
2023-05-05T03:14:21.484Z,17.67
2023-05-05T03:17:25.954Z,17.68
2023-05-05T03:20:29.328Z,17.84
2023-05-05T03:23:34.801Z,17.77
2023-05-05T03:26:38.573Z,17.58
2023-05-05T03:29:41.206Z,17.62
2023-05-05T03:32:48.574Z,17.82
2023-05-05T03:35:51.535Z,17.69
2023-05-05T03:38:54.655Z,17.61
2023-05-05T03:41:58.036Z,17.51
2023-05-05T03:45:05.052Z,17.50
2023-05-05T03:48:09.683Z,17.67
2023-05-05T03:51:13.753Z,17.62
2023-05-05T03:54:17.233Z,17.63
2023-05-05T03:57:19.769Z,17.68
2023-05-05T04:00:22.301Z,17.70
2023-05-05T04:03:25.035Z,17.78
2023-05-05T04:06:27.850Z,17.66
2023-05-05T04:09:30.356Z,17.68
2023-05-05T04:12:33.069Z,17.63
2023-05-05T04:15:35.674Z,17.65
2023-05-05T04:18:38.329Z,17.58
2023-05-05T04:21:40.960Z,17.70
2023-05-05T04:24:43.478Z,17.73
2023-05-05T04:27:46.051Z,17.73
2023-05-05T04:30:49.715Z,17.97
2023-05-05T04:33:52.222Z,17.80
2023-05-05T04:36:55.010Z,17.97
2023-05-05T04:39:58.150Z,17.92
2023-05-05T04:43:00.656Z,17.90
2023-05-05T04:46:04.419Z,18.06
2023-05-05T04:49:09.476Z,17.99
2023-05-05T04:52:14.959Z,17.95
2023-05-05T04:55:17.419Z,18.13
2023-05-05T04:58:19.779Z,18.16
2023-05-05T05:01:22.248Z,18.09
2023-05-05T05:04:26.018Z,18.20
2023-05-05T05:07:28.419Z,18.15
2023-05-05T05:10:30.766Z,18.29
2023-05-05T05:13:33.270Z,18.23
2023-05-05T05:16:35.813Z,18.11
2023-05-05T05:19:38.318Z,18.24
2023-05-05T05:22:42.230Z,18.36
2023-05-05T05:25:49.337Z,18.42
2023-05-05T05:28:54.074Z,18.26
2023-05-05T05:31:56.719Z,18.28
2023-05-05T05:34:59.237Z,18.58
2023-05-05T05:38:02.325Z,18.62
2023-05-05T05:41:06.595Z,18.66
2023-05-05T05:44:10.270Z,18.57
2023-05-05T05:47:13.204Z,18.59
2023-05-05T05:50:16.393Z,18.80
2023-05-05T05:53:19.079Z,18.67
2023-05-05T05:56:22.120Z,18.74
2023-05-05T05:59:25.365Z,18.88
2023-05-05T06:02:27.884Z,18.61
2023-05-05T06:05:31.445Z,18.87
2023-05-05T06:08:34.351Z,18.75
2023-05-05T06:11:37.226Z,19.21
2023-05-05T06:14:39.767Z,19.06
2023-05-05T06:17:42.777Z,19.30
2023-05-05T06:20:45.328Z,19.53
2023-05-05T06:23:50.263Z,19.63
2023-05-05T06:27:02.777Z,19.61
2023-05-05T06:30:06.846Z,19.67
2023-05-05T06:33:09.497Z,20.08
2023-05-05T06:36:12.050Z,20.15
2023-05-05T06:39:16.027Z,20.11
2023-05-05T06:42:18.669Z,20.28
2023-05-05T06:45:21.976Z,20.33
2023-05-05T06:48:24.563Z,20.44
2023-05-05T06:51:27.772Z,20.61
2023-05-05T06:54:30.368Z,20.65
2023-05-05T06:57:35.365Z,20.86
2023-05-05T07:00:41.040Z,21.20
2023-05-05T07:03:44.414Z,21.44
2023-05-05T07:06:47.516Z,21.40
2023-05-05T07:09:49.892Z,21.91
2023-05-05T07:12:52.564Z,22.16
2023-05-05T07:15:55.095Z,22.33
2023-05-05T07:18:57.532Z,22.43
2023-05-05T07:22:00.023Z,22.63
2023-05-05T07:25:03.942Z,22.79
2023-05-05T07:28:06.536Z,22.93
2023-05-05T07:31:15.616Z,23.15
2023-05-05T07:34:21.143Z,23.24
2023-05-05T07:37:23.681Z,23.09
2023-05-05T07:40:30.518Z,23.23
2023-05-05T07:43:33.582Z,23.34
2023-05-05T07:46:36.366Z,23.35
2023-05-05T07:49:39.073Z,23.34
2023-05-05T07:52:48.263Z,23.31
2023-05-05T07:55:54.162Z,23.15
2023-05-05T07:58:59.777Z,23.10
2023-05-05T08:02:02.217Z,23.23
2023-05-05T08:05:05.085Z,23.11
2023-05-05T08:08:07.944Z,23.04
2023-05-05T08:11:10.363Z,22.96
2023-05-05T08:14:12.745Z,22.89
2023-05-05T08:17:15.112Z,22.72
2023-05-05T08:20:18.608Z,22.43
2023-05-05T08:23:21.594Z,22.36
2023-05-05T08:26:23.934Z,22.26
2023-05-05T08:29:26.336Z,22.17
2023-05-05T08:32:29.892Z,22.08
2023-05-05T08:35:32.353Z,22.02
2023-05-05T08:38:34.746Z,21.92
2023-05-05T08:41:37.170Z,21.80
2023-05-05T08:44:39.695Z,21.79
2023-05-05T08:47:43.406Z,21.79
2023-05-05T08:50:49.177Z,21.74
2023-05-05T08:54:03.243Z,21.51
2023-05-05T08:57:07.555Z,21.53
2023-05-05T09:00:11.323Z,21.59
2023-05-05T09:03:14.704Z,21.56
2023-05-05T09:06:17.479Z,21.48
2023-05-05T09:09:20.615Z,21.45
2023-05-05T09:12:23.484Z,21.45
2023-05-05T09:15:28.403Z,21.43
2023-05-05T09:18:30.991Z,21.40
2023-05-05T09:21:33.471Z,21.33
2023-05-05T09:24:35.880Z,21.24
2023-05-05T09:27:42.163Z,21.21
2023-05-05T09:30:46.357Z,21.29
2023-05-05T09:33:48.943Z,21.20
2023-05-05T09:36:51.378Z,21.05
2023-05-05T09:39:54.568Z,21.20
2023-05-05T09:43:02.028Z,21.13
2023-05-05T09:46:08.465Z,21.01
2023-05-05T09:49:19.667Z,21.15
2023-05-05T09:52:22.282Z,21.06
2023-05-05T09:55:25.161Z,21.13
2023-05-05T09:58:29.422Z,21.10
2023-05-05T10:01:31.868Z,21.04
2023-05-05T10:04:34.345Z,20.97
2023-05-05T10:07:37.792Z,21.04
2023-05-05T10:10:56.233Z,21.00
2023-05-05T10:13:58.643Z,20.99
2023-05-05T10:17:01.858Z,20.91
2023-05-05T10:20:04.780Z,20.98
2023-05-05T10:23:08.480Z,20.95
2023-05-05T10:26:13.653Z,20.95
2023-05-05T10:29:48.925Z,20.94
2023-05-05T10:33:00.839Z,20.84
2023-05-05T10:36:11.146Z,20.93
2023-05-05T10:39:17.223Z,20.89
2023-05-05T10:42:20.217Z,20.80
2023-05-05T10:45:22.709Z,20.78
2023-05-05T10:48:33.858Z,20.90
2023-05-05T10:51:45.495Z,20.90
2023-05-05T10:54:55.731Z,20.90
2023-05-05T10:57:58.123Z,20.89
2023-05-05T11:01:00.912Z,20.77
2023-05-05T11:04:23.157Z,20.91
2023-05-05T11:07:27.599Z,20.94
2023-05-05T11:10:44.277Z,20.95
2023-05-05T11:13:46.634Z,20.94
2023-05-05T11:16:50.617Z,20.92
2023-05-05T11:19:53.516Z,20.90
2023-05-05T11:23:05.472Z,20.86
2023-05-05T11:26:08.945Z,20.85
2023-05-05T11:29:11.427Z,20.78
2023-05-05T11:32:14.394Z,20.79
2023-05-05T11:35:16.819Z,20.82
2023-05-05T11:38:20.209Z,20.79
2023-05-05T11:41:32.117Z,20.80
2023-05-05T11:44:34.725Z,20.79
2023-05-05T11:47:37.203Z,20.65
2023-05-05T11:50:39.746Z,20.76
2023-05-05T11:53:50.000Z,20.74
2023-05-05T11:57:02.109Z,20.69
2023-05-05T12:00:08.056Z,20.72
2023-05-05T12:03:10.867Z,20.67
2023-05-05T12:06:13.312Z,20.70
2023-05-05T12:09:16.915Z,20.68
2023-05-05T12:12:19.580Z,20.59
2023-05-05T12:15:29.386Z,20.64
2023-05-05T12:18:31.712Z,20.67
2023-05-05T12:21:38.332Z,20.62
2023-05-05T12:24:40.709Z,20.61
2023-05-05T12:27:51.977Z,20.65
2023-05-05T12:30:58.085Z,20.66
2023-05-05T12:34:00.537Z,20.68
2023-05-05T12:37:03.445Z,20.58
2023-05-05T12:40:07.497Z,20.66
2023-05-05T12:43:10.878Z,20.56
2023-05-05T12:46:13.893Z,20.64
2023-05-05T12:49:17.020Z,20.63
2023-05-05T12:52:19.481Z,20.62
2023-05-05T12:55:36.142Z,20.66
2023-05-05T12:58:50.956Z,20.66
2023-05-05T13:01:55.467Z,20.66
2023-05-05T13:04:57.962Z,20.61
2023-05-05T13:08:00.526Z,20.62
2023-05-05T13:11:03.216Z,20.60
2023-05-05T13:14:06.835Z,20.66
2023-05-05T13:17:10.606Z,20.65
2023-05-05T13:20:14.163Z,20.62
2023-05-05T13:23:16.556Z,20.65
2023-05-05T13:26:18.988Z,20.59
2023-05-05T13:29:21.431Z,20.63
2023-05-05T13:32:23.946Z,20.55
2023-05-05T13:35:26.566Z,20.63
2023-05-05T13:38:29.274Z,20.62
2023-05-05T13:41:31.639Z,20.56
2023-05-05T13:44:35.528Z,20.62
2023-05-05T13:47:38.466Z,20.59
2023-05-05T13:50:40.848Z,20.56
2023-05-05T13:53:44.252Z,20.55
2023-05-05T13:56:46.685Z,20.58
2023-05-05T13:59:49.039Z,20.54
2023-05-05T14:02:51.495Z,20.56
2023-05-05T14:05:53.834Z,20.56
2023-05-05T14:08:56.394Z,20.49
2023-05-05T14:11:59.116Z,20.53
2023-05-05T14:15:01.665Z,20.53
2023-05-05T14:18:04.186Z,20.51
2023-05-05T14:21:06.607Z,20.52
2023-05-05T14:24:09.065Z,20.45
2023-05-05T14:27:11.504Z,20.40
2023-05-05T14:30:14.350Z,20.42
2023-05-05T14:33:17.137Z,20.50
2023-05-05T14:36:19.614Z,20.47
2023-05-05T14:39:21.943Z,20.43
2023-05-05T14:42:25.120Z,20.48
2023-05-05T14:45:29.659Z,20.39
2023-05-05T14:48:35.249Z,20.44
2023-05-05T14:51:37.638Z,20.36
2023-05-05T14:54:39.984Z,20.44
2023-05-05T14:57:42.325Z,20.46
2023-05-05T15:00:44.672Z,20.41
2023-05-05T15:03:47.059Z,20.42
2023-05-05T15:06:49.521Z,20.38
2023-05-05T15:09:51.830Z,20.43
2023-05-05T15:12:54.174Z,20.42
2023-05-05T15:15:56.602Z,20.37
2023-05-05T15:18:58.970Z,20.41
2023-05-05T15:22:01.340Z,20.41
2023-05-05T15:25:03.944Z,20.39
2023-05-05T15:28:06.289Z,20.34
2023-05-05T15:31:08.659Z,20.33
2023-05-05T15:34:11.023Z,20.35
2023-05-05T15:37:13.373Z,20.36
2023-05-05T15:40:15.896Z,20.36
2023-05-05T15:43:18.298Z,20.31
2023-05-05T15:46:20.874Z,20.30
2023-05-05T15:49:23.253Z,20.29
2023-05-05T15:52:25.668Z,20.28
2023-05-05T15:55:28.240Z,20.34
2023-05-05T15:58:43.652Z,20.33
2023-05-05T16:01:50.243Z,20.31
2023-05-05T16:04:56.133Z,20.31
2023-05-05T16:07:59.128Z,20.30
2023-05-05T16:11:01.471Z,20.30
2023-05-05T16:14:04.111Z,20.30
2023-05-05T16:17:07.761Z,20.28
2023-05-05T16:20:11.267Z,20.22
2023-05-05T16:23:13.672Z,20.27
2023-05-05T16:26:16.644Z,20.24
2023-05-05T16:29:19.011Z,20.24
2023-05-05T16:32:21.389Z,20.24
2023-05-05T16:35:23.712Z,20.18
2023-05-05T16:38:26.142Z,20.20
2023-05-05T16:41:28.690Z,20.22
2023-05-05T16:44:31.171Z,20.11
2023-05-05T16:47:33.659Z,20.21
2023-05-05T16:50:36.003Z,20.20
2023-05-05T16:53:38.506Z,20.19
2023-05-05T16:56:40.948Z,20.18
2023-05-05T16:59:43.342Z,20.10
2023-05-05T17:02:45.809Z,20.17
2023-05-05T17:05:50.250Z,20.16
2023-05-05T17:08:52.791Z,20.14
2023-05-05T17:11:55.228Z,20.04
2023-05-05T17:14:57.554Z,20.15
2023-05-05T17:17:59.952Z,20.12
2023-05-05T17:21:02.294Z,20.13
2023-05-05T17:24:05.056Z,20.02
2023-05-05T17:27:07.588Z,20.10
2023-05-05T17:30:10.298Z,20.08
2023-05-05T17:33:12.750Z,20.09
2023-05-05T17:36:15.119Z,20.04
2023-05-05T17:39:17.544Z,19.98
2023-05-05T17:42:22.987Z,19.99
2023-05-05T17:45:25.438Z,19.98
2023-05-05T17:48:27.899Z,19.96
2023-05-05T17:51:31.413Z,19.98
2023-05-05T17:54:33.763Z,19.96
2023-05-05T17:57:36.263Z,19.95
2023-05-05T18:00:38.576Z,19.84
2023-05-05T18:03:41.211Z,19.91
2023-05-05T18:06:43.720Z,19.80
2023-05-05T18:09:46.087Z,19.87
2023-05-05T18:12:48.560Z,19.84
2023-05-05T18:15:51.030Z,19.84
2023-05-05T18:18:53.496Z,19.72
2023-05-05T18:21:55.872Z,19.77
2023-05-05T18:24:59.725Z,19.76
2023-05-05T18:28:02.141Z,19.66
2023-05-05T18:31:04.707Z,19.69
2023-05-05T18:34:07.172Z,19.69
2023-05-05T18:37:09.552Z,19.62
2023-05-05T18:40:12.304Z,19.57
2023-05-05T18:43:14.673Z,19.60
2023-05-05T18:46:17.249Z,19.57
2023-05-05T18:49:19.692Z,19.54
2023-05-05T18:52:22.008Z,19.45
2023-05-05T18:55:24.461Z,19.44
2023-05-05T18:58:27.389Z,19.45
2023-05-05T19:01:29.796Z,19.43
2023-05-05T19:04:33.006Z,19.41
2023-05-05T19:07:36.118Z,19.40
2023-05-05T19:10:38.661Z,19.37
2023-05-05T19:13:41.370Z,19.36
2023-05-05T19:16:44.093Z,19.30
2023-05-05T19:19:46.493Z,19.30
2023-05-05T19:22:49.022Z,19.27
2023-05-05T19:25:52.920Z,19.25
2023-05-05T19:28:55.362Z,19.22
2023-05-05T19:31:57.856Z,19.20
2023-05-05T19:35:00.686Z,19.15
2023-05-05T19:38:03.100Z,19.15
2023-05-05T19:41:05.501Z,19.08
2023-05-05T19:44:07.904Z,19.07
2023-05-05T19:47:10.946Z,19.00
2023-05-05T19:50:15.471Z,19.00
2023-05-05T19:53:17.836Z,19.00
2023-05-05T19:56:20.180Z,18.99
2023-05-05T19:59:22.854Z,18.93
2023-05-05T20:02:27.230Z,18.97
2023-05-05T20:05:29.720Z,18.85
2023-05-05T20:08:32.147Z,18.93
2023-05-05T20:11:34.642Z,18.87
2023-05-05T20:14:37.045Z,18.79
2023-05-05T20:17:39.469Z,18.79
2023-05-05T20:20:42.207Z,18.84
2023-05-05T20:23:45.603Z,18.87
2023-05-05T20:26:47.944Z,18.76
2023-05-05T20:29:50.320Z,18.83
2023-05-05T20:32:53.607Z,18.83
2023-05-05T20:35:56.011Z,18.74
2023-05-05T20:38:58.338Z,18.74
2023-05-05T20:42:01.274Z,18.76
2023-05-05T20:45:04.057Z,18.74
2023-05-05T20:48:09.846Z,18.63
2023-05-05T20:51:12.268Z,18.60
2023-05-05T20:54:14.638Z,18.62
2023-05-05T20:57:17.020Z,18.65
2023-05-05T21:00:19.381Z,18.66
2023-05-05T21:03:21.748Z,18.64
2023-05-05T21:06:24.383Z,18.61
2023-05-05T21:09:26.893Z,18.63
2023-05-05T21:12:29.892Z,18.60
2023-05-05T21:15:32.650Z,18.55
2023-05-05T21:18:36.134Z,18.51
2023-05-05T21:21:38.511Z,18.55
2023-05-05T21:24:40.873Z,18.55
2023-05-05T21:27:43.390Z,18.54
2023-05-05T21:30:54.838Z,18.49
2023-05-05T21:34:07.272Z,18.51
2023-05-05T21:37:09.717Z,18.41
2023-05-05T21:40:14.000Z,18.49
2023-05-05T21:43:17.050Z,18.36
2023-05-05T21:46:19.430Z,18.41
2023-05-05T21:49:21.951Z,18.44
2023-05-05T21:52:24.294Z,18.42
2023-05-05T21:55:26.645Z,18.24
2023-05-05T21:58:29.299Z,18.36
2023-05-05T22:01:31.979Z,18.41
2023-05-05T22:04:34.301Z,18.39
2023-05-05T22:07:37.065Z,18.36
2023-05-05T22:10:39.577Z,18.37
2023-05-05T22:13:42.099Z,18.38
2023-05-05T22:16:44.487Z,18.31
2023-05-05T22:19:46.851Z,18.37
2023-05-05T22:22:49.253Z,18.33
2023-05-05T22:25:51.615Z,18.28
2023-05-05T22:28:53.961Z,18.33
2023-05-05T22:31:56.310Z,18.21
2023-05-05T22:34:58.687Z,18.23
2023-05-05T22:38:01.533Z,18.26
2023-05-05T22:41:04.052Z,18.29
2023-05-05T22:44:06.969Z,18.29
2023-05-05T22:47:09.441Z,18.16
2023-05-05T22:50:11.773Z,18.23
2023-05-05T22:53:14.151Z,18.19
2023-05-05T22:56:16.939Z,18.17
2023-05-05T22:59:19.331Z,18.17
2023-05-05T23:02:21.749Z,18.19
2023-05-05T23:05:24.207Z,18.15
2023-05-05T23:08:26.673Z,18.13
2023-05-05T23:11:29.056Z,18.08
2023-05-05T23:14:31.467Z,18.21
2023-05-05T23:17:33.896Z,18.11
2023-05-05T23:20:36.277Z,18.14
2023-05-05T23:23:38.608Z,18.13
2023-05-05T23:26:40.977Z,18.17
2023-05-05T23:29:43.308Z,18.19
2023-05-05T23:32:46.038Z,18.04
2023-05-05T23:35:48.509Z,18.10
2023-05-05T23:38:50.823Z,18.07
2023-05-05T23:41:53.159Z,18.14
2023-05-05T23:44:55.549Z,18.15
2023-05-05T23:47:57.944Z,18.12
2023-05-05T23:51:00.330Z,18.13
2023-05-05T23:54:02.730Z,18.11
2023-05-05T23:57:05.155Z,18.02
